Αναφορές METAR Αεροδρομίων

 

LGTS - THESSALONIKI - GREECE
Ενημερώθηκε: 27/05/2019 10:50
Αραιές Νεφώσεις
Αραιές Νεφώσεις
 Ανεμος από varies
Ανεμος: varies 2 km/h
Θερμοκρασία: 22°C
Σημ. Δρόσου: 16°C
Υγρασία: 69%
Βαρόμετρο: 1016 hPa
Clouds: Αραιές Νεφώσεις
Visibility: 10 km
Cloud details: Αραιές Νεφώσεις 762 m
2019/05/27 07:50 LGTS 270750Z VRB01KT 9999 FEW025 22/16 Q1016 NOSIG
LGLR - LARTISA - GREECE
Ενημερώθηκε: 27/05/2019 10:50
Ασθενής βροχή, Σχεδόν νεφελώδης
Ασθενής βροχή, Σχεδόν νεφελώδης
 Ανεμος από calm
Ανεμος: Απνοια
Θερμοκρασία: 20°C
Σημ. Δρόσου: 15°C
Υγρασία: 73%
Βαρόμετρο: 1017 hPa
Περίληψη: Ασθενής βροχή
Clouds: Σχεδόν νεφελώδης
Visibility: 10 km
Cloud details: Αραιές Νεφώσεις 762 m
Σχεδόν νεφελώδης 2438 m
2019/05/27 07:50 LGLR 270750Z 00000KT 9999 -RA FEW025TCU BKN080 20/15 Q1017 RMK OVC180 BLU
 
LGKZ - KOZANI - GREECE
Ενημερώθηκε: 27/05/2019 10:50
Ασθενής βροχή, Σχεδόν νεφελώδης
Ασθενής βροχή, Σχεδόν νεφελώδης
 Ανεμος από Β
Ανεμος: Β 7 km/h
Θερμοκρασία: 15°C
Σημ. Δρόσου: 14°C
Υγρασία: 94%
Βαρόμετρο: 1019 hPa
Περίληψη: Ασθενής βροχή
Clouds: Σχεδόν νεφελώδης
Visibility: 8 km
Cloud details: Μερικώς νεφελώδης 762 m
Σχεδόν νεφελώδης 2134 m
2019/05/27 07:50 LGKZ 270750Z 01004KT 8000 -RA SCT025 BKN070 15/14 Q1019
LGKV - KAVALA - GREECE
Ενημερώθηκε: 27/05/2019 10:50
Σχεδόν νεφελώδης
Σχεδόν νεφελώδης
 Ανεμος από ΑΒΑ
Ανεμος: ΑΒΑ 7 km/h
Θερμοκρασία: 23°C
Σημ. Δρόσου: 15°C
Υγρασία: 61%
Βαρόμετρο: 1016 hPa
Clouds: Σχεδόν νεφελώδης
Visibility: 10 km
Cloud details: Αραιές Νεφώσεις 914 m
Σχεδόν νεφελώδης 2438 m
2019/05/27 07:50 LGKV 270750Z 07004KT 9999 FEW030 BKN080 23/15 Q1016
 
LGIO - IOANNINA - GREECE
Ενημερώθηκε: 27/05/2019 10:50
Σχεδόν νεφελώδης
Σχεδόν νεφελώδης
 Ανεμος από varies
Ανεμος: varies 0 km/h
Θερμοκρασία: 15°C
Σημ. Δρόσου: 14°C
Υγρασία: 94%
Βαρόμετρο: 1016 hPa
Clouds: Σχεδόν νεφελώδης
Visibility: 10 km
Cloud details: Αραιές Νεφώσεις 305 m
Σχεδόν νεφελώδης 1067 m
Σχεδόν νεφελώδης 2134 m
2019/05/27 07:50 LGIO 270750Z /////KT 9999 FEW010 BKN035 BKN070 15/14 Q1016
LGBL - BOLOS - GREECE
Ενημερώθηκε: 27/05/2019 10:50
Αραιές Νεφώσεις
Αραιές Νεφώσεις
 Ανεμος από ΒΑ
Ανεμος: ΒΑ 7 km/h
Θερμοκρασία: 21°C
Σημ. Δρόσου: 14°C
Υγρασία: 64%
Βαρόμετρο: 1017 hPa
Clouds: Αραιές Νεφώσεις
Visibility: 10 km
Cloud details: Αραιές Νεφώσεις 1067 m
2019/05/27 07:50 LGBL 270750Z 05004KT 9999 FEW035 21/14 Q1017
 
LGMT - MITILINI - GREECE
Ενημερώθηκε: 27/05/2019 10:50
Αίθριος
Αίθριος
 Ανεμος από varies
Ανεμος: varies 6 km/h
Θερμοκρασία: 23°C
Σημ. Δρόσου: 15°C
Υγρασία: 61%
Βαρόμετρο: 1015 hPa
Περίληψη: Αίθριος
Visibility: greater than 10 km
2019/05/27 07:50 LGMT 270750Z VRB03KT CAVOK 23/15 Q1015
LGAV - ATHENS - GREECE
Ενημερώθηκε: 27/05/2019 10:50
Αραιές Νεφώσεις
Αραιές Νεφώσεις
 Ανεμος από Β
Ανεμος: Β 11 km/h
Θερμοκρασία: 25°C
Σημ. Δρόσου: 10°C
Υγρασία: 39%
Βαρόμετρο: 1016 hPa
Clouds: Αραιές Νεφώσεις
Visibility: 10 km
Cloud details: Αραιές Νεφώσεις 914 m
2019/05/27 07:50 LGAV 270750Z 36006KT 9999 FEW030 25/10 Q1016 NOSIG
 
LGRP - RODOS - GREECE
Ενημερώθηκε: 27/05/2019 10:50
Αίθριος
Αίθριος
 Ανεμος από ΒΒΑ
Ανεμος: ΒΒΑ 9 km/h
Θερμοκρασία: 25°C
Σημ. Δρόσου: 15°C
Υγρασία: 54%
Βαρόμετρο: 1013 hPa
Περίληψη: Αίθριος
Visibility: greater than 10 km
2019/05/27 07:50 LGRP 270750Z 03005KT CAVOK 25/15 Q1013 NOSIG
LGIR - HRAKLIO/KRITI - GREECE
Ενημερώθηκε: 27/05/2019 10:50
Αίθριος
Αίθριος
 Ανεμος από ΒΒΔ
Ανεμος: ΒΒΔ 7 km/h
Θερμοκρασία: 23°C
Σημ. Δρόσου: 19°C
Υγρασία: 78%
Βαρόμετρο: 1014 hPa
Περίληψη: Αίθριος
Visibility: greater than 10 km
2019/05/27 07:50 LGIR 270750Z 34004KT CAVOK 23/19 Q1014 NOSIG
 
LGMK - MIKONOS - GREECE
Ενημερώθηκε: 27/05/2019 10:50
Αίθριος
Αίθριος
 Ανεμος από ΔΒΔ
Ανεμος: ΔΒΔ 19 km/h
Θερμοκρασία: 23°C
Σημ. Δρόσου: 15°C
Υγρασία: 61%
Βαρόμετρο: 1015 hPa
Περίληψη: Αίθριος
Visibility: greater than 10 km
2019/05/27 07:50 LGMK 270750Z 30010KT CAVOK 23/15 Q1015
LGKR - KERKIRA - GREECE
Ενημερώθηκε: 27/05/2019 10:50
Σχεδόν νεφελώδης
Σχεδόν νεφελώδης
 Ανεμος από ΝΝΑ
Ανεμος: ΝΝΑ 20 km/h
Θερμοκρασία: 20°C
Σημ. Δρόσου: 14°C
Υγρασία: 69%
Βαρόμετρο: 1012 hPa
Clouds: Σχεδόν νεφελώδης
Visibility: 10 km
Cloud details: Αραιές Νεφώσεις 549 m
Σχεδόν νεφελώδης 1067 m
Σχεδόν νεφελώδης 2438 m
2019/05/27 07:50 LGKR 270750Z 15011KT 9999 FEW018 BKN035 BKN080 20/14 Q1012 NOSIG